Time;durP1;ratioP1;P1;durP2;ratioP2;P2;SDS_P1;SDS_P2;PMS_P1;PMS_P2;Temp;Humidity;BMP_temperature;BMP_pressure;BME280_temperature;BME280_humidity;BME280_pressure;Samples;Min_cycle;Max_cycle;Signal;HPM_P1;HPM_P2
2021/11/08 00:00:53;;;;;;;21.20;3.40;;;7.60;99.90;;;;;;4936532;28;20045;-83
2021/11/08 00:03:24;;;;;;;22.92;2.80;;;7.60;99.90;;;;;;4949490;28;20057;-83
2021/11/08 00:05:50;;;;;;;19.45;2.25;;;7.60;99.90;;;;;;4925957;28;20034;-83
2021/11/08 00:08:17;;;;;;;19.10;2.65;;;7.60;99.90;;;;;;4962541;28;20148;-83
2021/11/08 00:10:44;;;;;;;23.30;2.70;;;7.60;99.90;;;;;;4981903;28;20046;-83
2021/11/08 00:13:11;;;;;;;24.17;2.65;;;7.60;99.90;;;;;;4965471;28;20827;-82
2021/11/08 00:21:19;;;;;;;18.70;2.65;;;7.70;99.90;;;;;;4971610;28;20046;-82
2021/11/08 00:23:45;;;;;;;27.70;2.97;;;7.70;99.90;;;;;;4928809;28;20035;-85
2021/11/08 00:26:11;;;;;;;23.00;3.45;;;7.70;99.90;;;;;;4935021;28;20784;-81
2021/11/08 00:28:37;;;;;;;17.63;2.85;;;7.70;99.90;;;;;;4954973;28;20045;-84
2021/11/08 00:31:03;;;;;;;20.08;2.35;;;7.70;99.90;;;;;;4953937;28;20038;-84
2021/11/08 00:33:29;;;;;;;20.92;2.58;;;7.80;99.90;;;;;;4933852;28;20049;-83
2021/11/08 00:36:00;;;;;;;28.83;3.88;;;7.80;99.90;;;;;;4951275;28;20217;-87
2021/11/08 00:38:27;;;;;;;16.50;2.45;;;7.80;99.90;;;;;;4950886;28;20045;-85
2021/11/08 00:40:54;;;;;;;32.25;3.30;;;7.80;99.90;;;;;;4952637;28;20490;-85
2021/11/08 00:43:20;;;;;;;21.75;3.10;;;7.70;99.90;;;;;;4967237;28;20041;-84
2021/11/08 00:45:46;;;;;;;21.08;2.53;;;7.70;99.90;;;;;;4965141;28;20140;-85
2021/11/08 00:48:14;;;;;;;25.75;2.80;;;7.70;99.90;;;;;;4934783;28;20120;-85
2021/11/08 00:50:40;;;;;;;17.17;1.92;;;7.70;99.90;;;;;;4949325;28;20119;-85
2021/11/08 00:53:06;;;;;;;22.15;2.40;;;7.70;99.90;;;;;;4915450;28;20046;-86
2021/11/08 00:55:33;;;;;;;18.35;2.42;;;7.70;99.90;;;;;;4967143;28;20031;-86
2021/11/08 00:58:01;;;;;;;14.75;2.70;;;7.70;99.90;;;;;;4966184;28;20042;-85
2021/11/08 01:00:29;;;;;;;21.95;2.72;;;7.60;99.90;;;;;;4940864;28;20640;-86
2021/11/08 01:02:57;;;;;;;19.27;3.15;;;7.60;99.90;;;;;;4952007;28;20042;-84
2021/11/08 01:05:23;;;;;;;20.63;2.20;;;7.60;99.90;;;;;;4919886;28;20505;-87
2021/11/08 01:07:49;;;;;;;19.50;2.78;;;7.60;99.90;;;;;;4920510;28;20049;-87
2021/11/08 01:10:18;;;;;;;26.63;2.83;;;7.60;99.90;;;;;;4947058;28;20040;-86
2021/11/08 01:12:45;;;;;;;21.25;2.60;;;7.60;99.90;;;;;;4947987;28;20042;-86
2021/11/08 01:15:13;;;;;;;18.83;2.65;;;7.60;99.90;;;;;;4949899;28;20516;-85
2021/11/08 01:17:40;;;;;;;20.90;3.63;;;7.60;99.90;;;;;;4938301;28;20169;-84
2021/11/08 01:20:07;;;;;;;22.25;2.30;;;7.70;99.90;;;;;;4962170;28;20046;-84
2021/11/08 01:22:35;;;;;;;16.35;2.17;;;7.70;99.90;;;;;;4966912;28;20079;-86
2021/11/08 01:25:01;;;;;;;22.58;2.10;;;7.70;99.90;;;;;;4981013;28;20072;-86
2021/11/08 01:27:50;;;;;;;15.80;1.95;;;7.80;99.90;;;;;;4931778;28;20042;-84
2021/11/08 01:30:21;;;;;;;20.05;2.45;;;7.80;99.90;;;;;;4949016;28;20069;-86
2021/11/08 01:32:56;;;;;;;15.57;2.45;;;7.80;99.90;;;;;;4932710;28;20061;-86
2021/11/08 01:35:43;;;;;;;16.17;2.42;;;7.80;99.90;;;;;;4935271;28;20048;-85
2021/11/08 01:39:00;;;;;;;18.33;2.50;;;7.80;99.90;;;;;;4935921;28;20389;-85
2021/11/08 01:40:57;;;;;;;16.58;2.30;;;7.80;99.90;;;;;;4955078;28;20108;-85
2021/11/08 01:43:24;;;;;;;18.15;2.20;;;7.90;99.90;;;;;;4931302;28;20030;-83
2021/11/08 01:45:50;;;;;;;14.27;1.92;;;7.80;99.90;;;;;;4929050;28;20044;-84
2021/11/08 01:48:16;;;;;;;19.27;2.47;;;7.80;99.90;;;;;;4945697;28;20049;-85
2021/11/08 01:50:43;;;;;;;13.30;2.35;;;7.80;99.90;;;;;;4947297;28;20038;-86
2021/11/08 01:53:11;;;;;;;16.88;2.25;;;7.80;99.90;;;;;;4917072;28;20042;-84
2021/11/08 01:55:37;;;;;;;14.63;2.35;;;7.70;99.90;;;;;;4948866;28;20041;-86
2021/11/08 01:58:04;;;;;;;21.65;2.85;;;7.70;99.90;;;;;;4927177;28;20034;-85
2021/11/08 02:00:31;;;;;;;20.05;2.90;;;7.70;99.90;;;;;;4934110;28;20038;-86
2021/11/08 02:02:57;;;;;;;20.08;2.20;;;7.70;99.90;;;;;;4960874;28;20045;-86
2021/11/08 02:05:22;;;;;;;17.83;2.40;;;7.60;99.90;;;;;;4949184;28;20038;-85
2021/11/08 02:07:49;;;;;;;13.52;1.85;;;7.60;99.90;;;;;;4947149;28;20180;-88
2021/11/08 02:10:17;;;;;;;19.75;2.33;;;7.60;99.90;;;;;;4951580;28;20129;-85
2021/11/08 02:12:44;;;;;;;23.33;2.67;;;7.60;99.90;;;;;;4968829;28;20524;-85
2021/11/08 02:15:16;;;;;;;17.33;2.38;;;7.60;99.90;;;;;;4961835;28;20049;-85
2021/11/08 02:17:44;;;;;;;17.40;2.30;;;7.50;99.90;;;;;;4949376;28;20038;-87
2021/11/08 02:20:18;;;;;;;15.55;2.55;;;7.50;99.90;;;;;;4930838;28;20038;-86
2021/11/08 02:22:45;;;;;;;17.05;2.13;;;7.50;99.90;;;;;;4950803;28;20054;-88
2021/11/08 02:25:12;;;;;;;17.80;2.70;;;7.50;99.90;;;;;;4946703;28;20523;-85
2021/11/08 02:27:41;;;;;;;17.75;2.22;;;7.50;99.90;;;;;;4932817;28;20097;-85
2021/11/08 02:30:09;;;;;;;16.90;2.95;;;7.40;99.90;;;;;;4919613;28;20042;-87
2021/11/08 02:32:35;;;;;;;17.02;2.40;;;7.40;99.90;;;;;;4933417;28;20493;-86
2021/11/08 02:35:02;;;;;;;21.67;2.80;;;7.30;99.90;;;;;;4947079;28;20084;-87
2021/11/08 02:37:28;;;;;;;17.33;2.17;;;7.30;99.90;;;;;;4910369;28;20144;-87
2021/11/08 02:39:55;;;;;;;22.60;2.33;;;7.30;99.90;;;;;;4951452;28;20117;-86
2021/11/08 02:42:21;;;;;;;19.25;2.58;;;7.30;99.90;;;;;;4934795;28;20047;-85
2021/11/08 02:44:46;;;;;;;18.13;2.42;;;7.30;99.90;;;;;;4964315;28;20042;-87
2021/11/08 02:47:13;;;;;;;21.42;2.40;;;7.20;99.90;;;;;;4933168;28;20045;-85
2021/11/08 02:49:43;;;;;;;18.17;2.50;;;7.20;99.90;;;;;;4948497;28;20057;-86
2021/11/08 02:52:10;;;;;;;17.92;2.17;;;7.20;99.90;;;;;;4933185;28;20493;-86
2021/11/08 02:54:42;;;;;;;18.40;2.63;;;7.20;99.90;;;;;;4976452;28;20142;-86
2021/11/08 02:57:09;;;;;;;11.63;1.90;;;7.20;99.90;;;;;;4962570;28;20411;-87
2021/11/08 02:59:37;;;;;;;20.27;2.10;;;7.20;99.90;;;;;;4963870;28;20088;-86
2021/11/08 03:02:07;;;;;;;16.88;2.60;;;7.10;99.90;;;;;;4944277;28;20038;-85
2021/11/08 03:04:40;;;;;;;22.83;2.08;;;7.10;99.90;;;;;;4946397;28;20448;-87
2021/11/08 03:07:06;;;;;;;9.15;2.20;;;7.10;99.90;;;;;;4963911;28;20093;-86
2021/11/08 03:09:39;;;;;;;18.20;2.00;;;7.00;99.90;;;;;;4930587;28;20628;-86
2021/11/08 03:12:10;;;;;;;20.23;2.78;;;7.00;99.90;;;;;;4962973;28;20039;-86
2021/11/08 03:14:43;;;;;;;18.90;2.20;;;7.00;99.90;;;;;;4968295;28;20042;-86
2021/11/08 03:17:15;;;;;;;19.33;2.42;;;7.00;99.90;;;;;;4962063;28;20070;-87
2021/11/08 03:19:43;;;;;;;20.70;2.35;;;6.90;99.90;;;;;;4963228;28;20456;-86
2021/11/08 03:22:16;;;;;;;15.18;2.10;;;7.00;99.90;;;;;;4961769;28;20177;-86
2021/11/08 03:24:47;;;;;;;15.07;2.28;;;7.00;99.90;;;;;;4963111;28;20078;-85
2021/11/08 03:27:48;;;;;;;17.75;2.45;;;7.00;99.90;;;;;;4942877;28;20034;-86
2021/11/08 03:30:14;;;;;;;20.73;2.50;;;7.00;99.90;;;;;;4960853;28;20042;-87
2021/11/08 03:32:47;;;;;;;19.23;2.72;;;7.00;99.90;;;;;;4933177;28;20050;-86
2021/11/08 03:35:21;;;;;;;;;;;7.10;99.90;;;;;;4949771;28;20050;-86
2021/11/08 03:37:49;;;;;;;24.30;2.30;;;7.10;99.90;;;;;;4959740;28;19921;-84
2021/11/08 03:40:40;;;;;;;23.30;2.60;;;7.10;99.90;;;;;;4945561;28;20137;-88
2021/11/08 03:43:10;;;;;;;22.05;2.95;;;7.20;99.90;;;;;;4946930;28;20107;-85
2021/11/08 03:46:12;;;;;;;21.02;2.60;;;7.20;99.90;;;;;;4967608;28;20120;-86
2021/11/08 03:48:44;;;;;;;12.60;2.30;;;7.20;99.90;;;;;;4964199;28;20038;-86
2021/11/08 03:51:14;;;;;;;17.55;2.47;;;7.20;99.90;;;;;;4963647;28;20054;-85
2021/11/08 03:53:47;;;;;;;20.25;2.45;;;7.10;99.90;;;;;;4962048;28;20793;-86
2021/11/08 03:56:26;;;;;;;18.35;2.47;;;7.10;99.90;;;;;;4949048;28;20046;-86
2021/11/08 03:58:57;;;;;;;16.98;2.30;;;7.10;99.90;;;;;;4931467;28;20035;-87
2021/11/08 04:01:35;;;;;;;25.35;2.25;;;7.10;99.90;;;;;;4952436;28;20045;-87
2021/11/08 04:04:08;;;;;;;16.50;2.13;;;7.00;99.90;;;;;;4948045;28;20038;-86
2021/11/08 04:06:37;;;;;;;17.23;2.33;;;7.00;99.90;;;;;;4947033;28;20800;-86
2021/11/08 04:09:07;;;;;;;22.67;2.85;;;6.90;99.90;;;;;;4949258;28;20572;-86
2021/11/08 04:11:35;;;;;;;23.08;2.70;;;6.90;99.90;;;;;;4964485;28;20051;-87
2021/11/08 04:14:02;;;;;;;19.77;2.92;;;6.90;99.90;;;;;;4951068;28;20054;-86
2021/11/08 04:16:30;;;;;;;23.30;2.88;;;6.80;99.90;;;;;;4964708;28;20733;-87
2021/11/08 04:19:00;;;;;;;23.08;2.65;;;6.80;99.90;;;;;;4937416;28;23750;-87
2021/11/08 04:21:36;;;;;;;24.98;2.70;;;6.70;99.90;;;;;;4966877;28;20035;-86
2021/11/08 04:24:28;;;;;;;19.40;2.33;;;6.70;99.90;;;;;;4936023;28;20096;-86
2021/11/08 04:27:19;;;;;;;20.23;2.58;;;6.70;99.90;;;;;;4966226;28;20042;-85
2021/11/08 04:29:48;;;;;;;21.23;2.70;;;6.70;99.90;;;;;;4951754;28;20050;-86
2021/11/08 04:32:17;;;;;;;22.92;2.65;;;6.70;99.90;;;;;;4934504;28;20038;-85
2021/11/08 04:34:49;;;;;;;20.05;2.40;;;6.70;99.90;;;;;;4948612;28;20512;-87
2021/11/08 04:40:27;;;;;;;18.00;2.67;;;6.70;99.90;;;;;;4960418;28;20125;-86
2021/11/08 04:51:32;;;;;;;22.05;2.67;;;6.80;99.90;;;;;;4968338;28;20039;-86
2021/11/08 05:21:42;;;;;;;19.42;2.50;;;6.90;99.90;;;;;;4955073;28;20675;-87
2021/11/08 05:24:33;;;;;;;15.80;1.90;;;6.90;99.90;;;;;;4951559;28;20042;-85
2021/11/08 05:30:07;;;;;;;16.75;2.22;;;6.90;99.90;;;;;;4983525;28;20121;-86
2021/11/08 05:32:49;;;;;;;23.45;3.17;;;6.90;99.90;;;;;;4931614;28;20097;-87
2021/11/08 05:35:15;;;;;;;15.52;2.22;;;6.80;99.90;;;;;;4951322;28;20038;-87
2021/11/08 05:37:46;;;;;;;18.05;2.22;;;6.80;99.90;;;;;;4935126;28;20031;-86
2021/11/08 05:40:25;;;;;;;18.27;2.58;;;6.80;99.90;;;;;;4932532;28;20374;-87
2021/11/08 06:49:53;;;;;;;15.95;2.47;;;6.70;99.90;;;;;;4912416;28;20058;-83
2021/11/08 06:52:51;;;;;;;18.67;2.70;;;6.70;99.90;;;;;;4932088;28;20046;-85
2021/11/08 06:56:03;;;;;;;20.17;2.25;;;6.70;99.90;;;;;;4932028;28;20046;-84
2021/11/08 06:58:41;;;;;;;17.48;2.28;;;6.80;99.90;;;;;;5013144;28;20117;-84
2021/11/08 07:01:07;;;;;;;16.52;2.53;;;6.80;99.90;;;;;;4983187;28;20126;-85
2021/11/08 07:03:37;;;;;;;19.75;2.30;;;6.80;99.90;;;;;;5001031;28;20104;-84
2021/11/08 07:06:26;;;;;;;21.05;2.40;;;6.90;99.90;;;;;;4982971;28;20076;-85
2021/11/08 07:09:02;;;;;;;14.35;2.40;;;6.90;99.90;;;;;;4981492;28;20156;-83
2021/11/08 07:11:38;;;;;;;18.90;2.72;;;6.90;99.90;;;;;;4999980;28;21015;-84
2021/11/08 07:15:25;;;;;;;17.27;2.33;;;6.90;99.90;;;;;;4994225;28;20038;-84
2021/11/08 07:17:52;;;;;;;19.83;2.22;;;7.00;99.90;;;;;;4976375;28;21090;-84
2021/11/08 07:20:28;;;;;;;17.35;2.45;;;7.00;99.90;;;;;;4987051;28;20450;-82
2021/11/08 07:26:48;;;;;;;16.88;2.83;;;7.10;99.90;;;;;;4943723;28;20133;-84
2021/11/08 07:30:38;;;;;;;;;;;;;;;;;;;;;
2021/11/08 07:33:05;;;;;;;19.95;2.97;;;7.20;99.90;;;;;;4874118;28;20050;-86
2021/11/08 07:35:36;;;;;;;16.08;2.05;;;7.20;99.90;;;;;;4924652;28;20744;-84
2021/11/08 07:38:31;;;;;;;20.05;3.17;;;7.20;99.90;;;;;;4975704;28;20061;-84
2021/11/08 07:41:50;;;;;;;15.98;2.40;;;7.20;99.90;;;;;;4998497;28;20040;-84
2021/11/08 07:44:24;;;;;;;21.38;2.72;;;7.20;99.90;;;;;;4975511;28;20538;-85
2021/11/08 07:46:59;;;;;;;12.23;2.85;;;7.20;99.90;;;;;;5003850;28;20037;-84
2021/11/08 07:49:27;;;;;;;17.52;3.08;;;7.20;99.90;;;;;;4988731;28;20042;-85
2021/11/08 07:52:08;;;;;;;15.48;2.65;;;7.20;99.90;;;;;;5004409;28;20121;-84
2021/11/08 07:55:17;;;;;;;19.90;2.78;;;7.30;99.90;;;;;;5003052;28;20045;-84
2021/11/08 07:58:05;;;;;;;;;;;;;;;;;;;;;
2021/11/08 08:00:44;;;;;;;25.15;3.00;;;7.30;99.90;;;;;;5014496;28;20038;-85
2021/11/08 08:03:15;;;;;;;17.33;3.13;;;7.30;99.90;;;;;;5003326;28;20034;-85
2021/11/08 08:05:41;;;;;;;15.70;2.92;;;7.40;99.90;;;;;;4991534;28;20107;-84
2021/11/08 08:08:09;;;;;;;19.83;2.90;;;7.40;99.90;;;;;;5005079;28;20045;-84
2021/11/08 08:10:35;;;;;;;25.02;3.55;;;7.50;99.90;;;;;;4985545;28;20052;-83
2021/11/08 08:13:01;;;;;;;21.98;3.22;;;7.50;99.90;;;;;;4973279;28;20515;-81
2021/11/08 08:15:27;;;;;;;23.25;3.50;;;7.60;99.90;;;;;;4985006;28;20569;-81
2021/11/08 08:17:53;;;;;;;21.67;2.97;;;7.70;99.90;;;;;;4982987;28;20074;-81
2021/11/08 08:20:21;;;;;;;21.25;3.15;;;7.80;99.90;;;;;;4993016;28;20117;-82
2021/11/08 08:22:47;;;;;;;19.30;3.80;;;7.90;99.90;;;;;;4971387;28;20050;-84
2021/11/08 08:25:13;;;;;;;21.38;3.47;;;7.90;99.90;;;;;;4972707;28;20049;-85
2021/11/08 08:27:39;;;;;;;19.70;3.33;;;7.90;99.90;;;;;;5007034;28;20054;-84
2021/11/08 08:30:08;;;;;;;23.48;2.95;;;8.00;99.90;;;;;;5007395;28;20052;-82
2021/11/08 08:32:34;;;;;;;14.23;2.47;;;8.00;99.90;;;;;;4990194;28;20034;-84
2021/11/08 08:35:00;;;;;;;20.80;2.63;;;8.10;99.90;;;;;;4968833;28;20034;-82
2021/11/08 08:37:28;;;;;;;16.05;2.70;;;8.10;99.90;;;;;;4971400;28;20600;-81
2021/11/08 08:39:54;;;;;;;16.38;2.65;;;8.20;99.90;;;;;;4986541;28;20034;-82
2021/11/08 08:42:23;;;;;;;17.00;2.67;;;8.20;99.90;;;;;;4989505;28;20038;-83
2021/11/08 08:44:50;;;;;;;19.63;2.92;;;8.30;99.90;;;;;;4988424;28;20069;-83
2021/11/08 08:47:16;;;;;;;15.13;2.58;;;8.30;99.90;;;;;;4988730;28;20444;-82
2021/11/08 08:49:41;;;;;;;19.38;3.20;;;8.40;99.90;;;;;;4969386;28;20046;-82
2021/11/08 08:52:08;;;;;;;19.17;3.35;;;8.40;99.90;;;;;;5005059;28;20244;-84
2021/11/08 08:54:34;;;;;;;17.25;2.67;;;8.40;99.90;;;;;;4969884;28;20116;-81
2021/11/08 08:57:19;;;;;;;20.05;2.72;;;8.50;99.90;;;;;;4988955;28;20061;-81
2021/11/08 08:59:45;;;;;;;20.88;2.78;;;8.60;99.90;;;;;;4992612;28;20041;-83
2021/11/08 09:02:12;;;;;;;15.27;2.53;;;8.70;99.90;;;;;;4988249;28;20034;-80
2021/11/08 09:04:39;;;;;;;17.48;2.58;;;8.70;99.90;;;;;;4985037;28;20054;-81
2021/11/08 09:07:07;;;;;;;16.80;2.25;;;8.80;99.90;;;;;;5001225;28;20034;-80
2021/11/08 09:09:33;;;;;;;22.73;2.83;;;8.90;99.90;;;;;;4983767;28;20699;-82
2021/11/08 09:11:59;;;;;;;21.73;2.83;;;9.00;99.90;;;;;;4970125;28;20137;-84
2021/11/08 09:14:30;;;;;;;14.27;2.28;;;9.00;99.90;;;;;;5001308;28;20045;-83
2021/11/08 09:16:57;;;;;;;16.58;2.58;;;9.10;99.90;;;;;;4984754;28;20034;-83
2021/11/08 09:19:23;;;;;;;18.23;2.63;;;9.10;99.90;;;;;;4984501;28;20046;-83
2021/11/08 09:21:49;;;;;;;22.02;2.60;;;9.20;99.90;;;;;;5002792;28;20068;-82
2021/11/08 09:24:15;;;;;;;16.40;2.60;;;9.20;99.90;;;;;;4982785;28;20038;-82
2021/11/08 09:26:41;;;;;;;20.20;2.72;;;9.30;99.90;;;;;;5002758;28;20100;-83
2021/11/08 09:29:07;;;;;;;17.17;2.90;;;9.30;99.90;;;;;;4997607;28;20096;-84
2021/11/08 09:31:33;;;;;;;20.33;2.53;;;9.30;99.90;;;;;;4985639;28;20033;-84
2021/11/08 09:34:09;;;;;;;20.20;2.75;;;9.40;99.90;;;;;;4952142;28;20096;-81
2021/11/08 09:36:36;;;;;;;20.45;2.95;;;9.40;99.90;;;;;;4985513;28;20133;-81
2021/11/08 09:39:09;;;;;;;14.52;2.17;;;9.40;99.90;;;;;;5004213;28;20033;-82
2021/11/08 09:41:37;;;;;;;21.55;2.53;;;9.40;99.90;;;;;;4999275;28;20049;-86
2021/11/08 09:44:06;;;;;;;21.02;2.65;;;9.50;99.90;;;;;;4991013;28;20092;-82
2021/11/08 09:46:33;;;;;;;19.67;3.15;;;9.50;99.90;;;;;;4981332;28;20555;-83
2021/11/08 09:49:02;;;;;;;16.30;2.55;;;9.50;99.90;;;;;;4999809;28;20103;-85
2021/11/08 09:54:40;;;;;;;21.13;2.55;;;9.50;99.90;;;;;;5007021;28;20130;-84
2021/11/08 09:57:53;;;;;;;17.50;2.83;;;9.50;99.90;;;;;;5004217;28;20109;-84
2021/11/08 10:00:47;;;;;;;21.45;2.40;;;9.50;99.90;;;;;;4984827;28;20489;-83
2021/11/08 10:03:24;;;;;;;18.27;2.40;;;9.50;99.90;;;;;;5004634;28;20370;-85
2021/11/08 10:05:53;;;;;;;18.00;2.25;;;9.50;99.90;;;;;;4999040;28;20045;-83
2021/11/08 10:08:26;;;;;;;18.90;2.45;;;9.50;99.90;;;;;;5004117;28;20046;-81
2021/11/08 10:10:55;;;;;;;18.13;2.35;;;9.50;99.90;;;;;;4984261;28;20037;-84
2021/11/08 10:13:24;;;;;;;19.90;2.85;;;9.50;99.90;;;;;;5015517;28;20042;-83
2021/11/08 10:15:54;;;;;;;19.67;2.72;;;9.40;99.90;;;;;;4985940;28;20140;-82
2021/11/08 10:18:22;;;;;;;16.98;2.47;;;9.40;99.90;;;;;;5004310;28;20076;-83
2021/11/08 10:20:52;;;;;;;17.05;2.10;;;9.40;99.90;;;;;;4988210;28;20038;-84
2021/11/08 10:23:22;;;;;;;;;;;9.50;99.90;;;;;;5006220;28;20041;-84
2021/11/08 10:25:49;;;;;;;22.60;2.78;;;9.40;99.90;;;;;;5005339;28;19921;-83
2021/11/08 10:28:33;;;;;;;23.92;2.42;;;9.40;99.90;;;;;;4989174;28;23525;-82
2021/11/08 10:31:05;;;;;;;18.20;2.45;;;9.50;99.90;;;;;;4992524;28;20057;-82
2021/11/08 10:33:35;;;;;;;18.13;2.17;;;9.50;99.90;;;;;;5005098;28;20065;-81
2021/11/08 10:36:20;;;;;;;18.33;2.45;;;9.60;99.90;;;;;;4988805;28;20081;-83
2021/11/08 10:38:51;;;;;;;21.83;2.50;;;9.70;99.90;;;;;;4987058;28;20475;-85
2021/11/08 10:41:21;;;;;;;15.07;2.97;;;9.80;99.90;;;;;;5002889;28;20046;-82
2021/11/08 10:43:50;;;;;;;14.73;2.28;;;9.80;99.90;;;;;;5003398;28;20468;-82
2021/11/08 10:46:21;;;;;;;23.35;3.10;;;9.90;99.90;;;;;;5005691;28;20033;-84
2021/11/08 10:48:57;;;;;;;14.73;2.47;;;9.90;99.90;;;;;;4984391;28;20038;-82
2021/11/08 10:51:26;;;;;;;20.27;2.60;;;10.00;99.90;;;;;;4990724;28;20113;-80
2021/11/08 10:53:56;;;;;;;14.30;2.50;;;10.00;99.90;;;;;;4984634;28;20046;-83
2021/11/08 10:56:30;;;;;;;20.45;2.95;;;10.00;99.90;;;;;;4988513;28;20034;-80
2021/11/08 10:58:58;;;;;;;16.00;2.28;;;10.00;99.90;;;;;;5001183;28;20037;-81
2021/11/08 11:01:35;;;;;;;17.50;2.47;;;10.10;99.90;;;;;;5003539;28;20436;-82
2021/11/08 11:04:05;;;;;;;17.67;2.53;;;10.10;99.90;;;;;;4987066;28;20057;-82
2021/11/08 11:06:38;;;;;;;22.85;2.50;;;10.10;99.90;;;;;;4984452;28;20052;-82
2021/11/08 11:09:20;;;;;;;17.85;2.03;;;10.10;99.90;;;;;;4990048;28;20046;-81
2021/11/08 11:11:49;;;;;;;17.25;2.92;;;10.10;99.90;;;;;;4983395;28;20046;-81
2021/11/08 11:14:16;;;;;;;15.65;2.35;;;10.10;99.90;;;;;;4997707;28;20130;-81
2021/11/08 11:16:48;;;;;;;18.25;2.30;;;10.10;99.90;;;;;;4982560;28;20160;-84
2021/11/08 11:19:19;;;;;;;14.55;2.50;;;10.10;99.90;;;;;;4991014;28;20038;-83
2021/11/08 11:22:07;;;;;;;12.80;2.25;;;10.10;99.90;;;;;;4990193;28;20042;-80
2021/11/08 11:24:46;;;;;;;14.43;2.10;;;10.10;99.90;;;;;;5004847;28;20109;-81
2021/11/08 11:27:21;;;;;;;16.08;2.33;;;10.10;99.90;;;;;;5006195;28;20050;-83
2021/11/08 11:29:46;;;;;;;18.67;2.40;;;10.10;99.90;;;;;;4989463;28;20092;-83
2021/11/08 11:32:21;;;;;;;15.05;2.20;;;10.10;99.90;;;;;;4996266;28;20037;-82
2021/11/08 11:34:48;;;;;;;19.50;2.30;;;10.10;99.90;;;;;;4997628;28;20516;-80
2021/11/08 11:37:34;;;;;;;22.52;2.63;;;10.00;99.90;;;;;;4995546;28;20129;-83
2021/11/08 11:40:12;;;;;;;17.02;1.98;;;10.00;99.90;;;;;;4983068;28;20073;-83
2021/11/08 11:42:54;;;;;;;16.52;2.42;;;10.00;99.90;;;;;;5007872;28;20433;-81
2021/11/08 11:45:20;;;;;;;17.27;2.38;;;10.00;99.90;;;;;;4987868;28;20564;-83
2021/11/08 11:48:37;;;;;;;10.30;1.77;;;10.00;99.90;;;;;;5006538;28;20456;-84
2021/11/08 11:54:33;;;;;;;17.60;2.50;;;10.00;99.90;;;;;;4937025;28;20124;-84
2021/11/08 11:57:03;;;;;;;20.02;2.60;;;10.00;99.90;;;;;;4975326;28;20046;-80
2021/11/08 11:59:33;;;;;;;18.65;2.67;;;10.00;99.90;;;;;;4989343;28;20121;-84
2021/11/08 12:02:04;;;;;;;13.98;2.33;;;10.10;99.90;;;;;;4991817;28;20046;-83
2021/11/08 12:04:35;;;;;;;16.55;2.15;;;10.20;99.90;;;;;;4959153;28;20037;-81
2021/11/08 12:07:13;;;;;;;15.68;2.17;;;10.20;99.90;;;;;;5005001;28;20068;-82
2021/11/08 12:09:49;;;;;;;10.10;2.25;;;10.20;99.90;;;;;;5009795;28;20098;-81
2021/11/08 12:12:33;;;;;;;16.58;2.03;;;10.20;99.90;;;;;;5011042;28;20096;-82
2021/11/08 12:15:09;;;;;;;11.95;2.08;;;10.20;99.90;;;;;;4990211;28;20049;-80
2021/11/08 12:17:48;;;;;;;13.52;2.15;;;10.30;99.90;;;;;;4989206;28;20453;-82
2021/11/08 12:20:17;;;;;;;8.10;1.90;;;10.30;99.90;;;;;;4987729;28;20377;-81
2021/11/08 12:22:46;;;;;;;17.67;2.10;;;10.40;99.90;;;;;;5020608;28;20042;-81
2021/11/08 12:25:16;;;;;;;18.88;2.55;;;10.40;99.90;;;;;;4977497;28;20477;-83
2021/11/08 12:28:12;;;;;;;14.68;2.25;;;10.40;99.90;;;;;;5026108;28;20058;-82
2021/11/08 12:30:42;;;;;;;27.65;2.47;;;10.40;99.90;;;;;;5000580;28;20053;-82
2021/11/08 12:33:26;;;;;;;17.55;2.38;;;10.40;99.90;;;;;;4984557;28;20038;-83
2021/11/08 12:36:00;;;;;;;12.77;1.80;;;10.30;99.90;;;;;;5004792;28;20037;-85
2021/11/08 12:45:44;;;;;;;22.27;2.10;;;10.20;99.90;;;;;;5005949;28;20073;-85
2021/11/08 12:49:15;;;;;;;;;;;;;;;;;;;;;
2021/11/08 12:52:14;;;;;;;;;;;;;;;;;;;;;
2021/11/08 12:55:26;;;;;;;23.75;2.80;;;10.20;99.90;;;;;;4993338;28;20112;-85
2021/11/08 12:57:59;;;;;;;31.05;5.18;;;10.20;99.90;;;;;;4957116;28;20074;-84
2021/11/08 13:00:55;;;;;;;29.42;6.97;;;10.20;99.90;;;;;;4988489;28;20041;-85
2021/11/08 13:04:31;;;;;;;22.10;4.07;;;10.10;99.90;;;;;;4985596;28;20034;-83
2021/11/08 13:07:26;;;;;;;40.60;8.15;;;10.20;99.90;;;;;;4991515;28;20050;-84
2021/11/08 13:10:29;;;;;;;27.75;4.93;;;10.10;99.90;;;;;;5046556;23;20057;-84
2021/11/08 13:36:23;;;;;;;33.88;9.05;;;10.50;99.90;;;;;;4806764;29;20069;-86
2021/11/08 13:39:44;;;;;;;23.42;5.05;;;10.50;99.90;;;;;;4785796;29;20088;-85
2021/11/08 13:46:04;;;;;;;;;;;;;;;;;;;;;
2021/11/08 13:49:11;;;;;;;28.23;4.30;;;10.40;99.90;;;;;;4839072;29;20056;-84
2021/11/08 13:56:08;;;;;;;35.83;5.30;;;10.40;99.90;;;;;;4905108;29;20048;-84
2021/11/08 14:06:36;;;;;;;15.98;1.70;;;10.50;99.90;;;;;;4814907;29;20449;-84
2021/11/08 14:09:30;;;;;;;16.52;1.92;;;10.50;99.90;;;;;;4849324;29;20080;-83
2021/11/08 14:12:00;;;;;;;16.83;1.70;;;10.60;99.90;;;;;;4911558;28;20054;-84
2021/11/08 14:14:40;;;;;;;16.75;2.15;;;10.50;99.90;;;;;;4931230;28;20042;-83
2021/11/08 14:17:42;;;;;;;14.88;2.20;;;10.50;99.90;;;;;;4929533;28;20053;-86
2021/11/08 14:20:12;;;;;;;13.57;2.80;;;10.50;99.90;;;;;;4935886;28;20065;-83
2021/11/08 14:23:27;;;;;;;13.50;3.65;;;10.50;99.90;;;;;;4948527;28;20061;-83
2021/11/08 14:32:55;;;;;;;8.63;1.85;;;10.40;99.90;;;;;;4969295;28;20121;-86
2021/11/08 14:35:28;;;;;;;16.20;1.92;;;10.40;99.90;;;;;;4882931;29;20060;-84
2021/11/08 14:38:13;;;;;;;8.73;1.30;;;10.30;99.90;;;;;;4984894;28;20081;-84
2021/11/08 14:40:45;;;;;;;10.15;1.02;;;10.30;99.90;;;;;;4967729;28;20486;-84
2021/11/08 14:43:29;;;;;;;9.30;2.05;;;10.20;99.90;;;;;;4970422;28;20120;-85
2021/11/08 14:46:07;;;;;;;9.82;1.20;;;10.20;99.90;;;;;;4964923;28;20043;-84
2021/11/08 15:05:52;;;;;;;11.15;1.40;;;10.50;99.90;;;;;;4872095;29;20048;-88
2021/11/08 15:11:57;;;;;;;;;;;;;;;;;;;;;
2021/11/08 15:15:13;;;;;;;3.33;0.60;;;10.30;99.90;;;;;;4808093;29;20125;-89
2021/11/08 15:22:42;;;;;;;3.85;0.75;;;10.00;99.90;;;;;;4832083;29;20167;-87
2021/11/08 16:51:33;;;;;;;7.78;1.33;;;8.90;99.90;;;;;;628323;23;20438;-86
2021/11/08 16:54:02;;;;;;;8.95;3.35;;;8.90;99.90;;;;;;4820248;29;20141;-88
2021/11/08 16:56:36;;;;;;;8.65;3.83;;;8.90;99.90;;;;;;4801744;29;20049;-88
2021/11/08 16:59:33;;;;;;;8.82;3.30;;;8.90;99.90;;;;;;4806295;29;20042;-87
2021/11/08 17:05:22;;;;;;;8.95;1.10;;;8.90;99.90;;;;;;4810441;29;20092;-86
2021/11/08 17:07:59;;;;;;;8.02;1.15;;;8.90;99.90;;;;;;4796936;29;20053;-88
2021/11/08 17:10:40;;;;;;;8.02;1.30;;;8.80;99.90;;;;;;4772045;29;20054;-88
2021/11/08 17:16:16;;;;;;;18.45;4.63;;;8.90;99.90;;;;;;4765437;30;20054;-86
2021/11/08 17:19:00;;;;;;;16.20;4.35;;;8.90;99.90;;;;;;4741323;30;20052;-87
2021/11/08 17:25:18;;;;;;;7.63;2.20;;;8.90;99.90;;;;;;4827992;29;20049;-86
2021/11/08 17:27:44;;;;;;;9.55;1.50;;;8.90;99.90;;;;;;4808017;29;20080;-86
2021/11/08 17:30:27;;;;;;;8.10;1.55;;;8.90;99.90;;;;;;4808425;29;20042;-86
2021/11/08 17:33:21;;;;;;;8.80;1.50;;;8.90;99.90;;;;;;4795735;29;20058;-86
2021/11/08 17:36:17;;;;;;;5.88;1.20;;;8.90;99.90;;;;;;4783018;29;20054;-86
2021/11/08 17:38:52;;;;;;;11.75;2.00;;;8.90;99.90;;;;;;4795842;29;20210;-87
2021/11/08 17:41:22;;;;;;;8.63;1.27;;;8.90;99.90;;;;;;4798520;29;20065;-88
2021/11/08 17:43:48;;;;;;;12.55;1.30;;;8.90;99.90;;;;;;4784588;29;20045;-89
2021/11/08 17:46:18;;;;;;;9.45;1.27;;;8.90;99.90;;;;;;4796592;29;20673;-89
2021/11/08 17:48:44;;;;;;;15.55;2.90;;;8.90;99.90;;;;;;4782899;29;20094;-89
2021/11/08 17:51:10;;;;;;;9.88;3.72;;;8.90;99.90;;;;;;4815991;29;20481;-89
2021/11/08 17:53:37;;;;;;;14.02;2.00;;;8.90;99.90;;;;;;4780193;29;20053;-89
2021/11/08 17:56:05;;;;;;;10.75;1.20;;;8.90;99.90;;;;;;4790476;29;20066;-89
2021/11/08 17:58:35;;;;;;;8.80;1.25;;;8.90;99.90;;;;;;4786650;29;20501;-88
2021/11/08 18:01:02;;;;;;;15.00;1.20;;;8.90;99.90;;;;;;4802852;29;20125;-88
2021/11/08 18:03:28;;;;;;;19.23;1.63;;;8.90;99.90;;;;;;4785732;29;20038;-88
2021/11/08 18:06:22;;;;;;;18.55;1.73;;;8.90;99.90;;;;;;4776525;29;20054;-88
2021/11/08 18:08:51;;;;;;;12.57;1.75;;;8.90;99.90;;;;;;4785569;29;20058;-88
2021/11/08 18:11:17;;;;;;;10.95;1.33;;;8.80;99.90;;;;;;4776830;29;20039;-86
2021/11/08 18:13:43;;;;;;;11.45;1.45;;;8.80;99.90;;;;;;4778095;29;20521;-88
2021/11/08 18:16:09;;;;;;;8.60;1.10;;;8.70;99.90;;;;;;4777758;29;20073;-87
2021/11/08 18:18:39;;;;;;;12.52;1.63;;;8.70;99.90;;;;;;4776508;29;20503;-87
2021/11/08 18:28:50;;;;;;;11.60;1.40;;;8.60;99.90;;;;;;4800237;29;20073;-88
2021/11/08 18:31:18;;;;;;;12.50;1.70;;;8.60;99.90;;;;;;4798785;29;20077;-88
2021/11/08 18:33:45;;;;;;;6.85;1.67;;;8.50;99.90;;;;;;4811729;29;20048;-89
2021/11/08 18:36:17;;;;;;;11.05;2.05;;;8.50;99.90;;;;;;4809566;29;20034;-89
2021/11/08 18:38:59;;;;;;;11.93;1.88;;;8.50;99.90;;;;;;4768671;29;20059;-89